createdAt,value
2019-03-28T00:02:21.238Z,8.90
2019-03-28T00:04:52.819Z,8.90
2019-03-28T00:07:24.422Z,8.80
2019-03-28T00:09:55.758Z,8.90
2019-03-28T00:12:28.755Z,8.90
2019-03-28T00:15:01.659Z,8.90
2019-03-28T00:17:34.158Z,8.90
2019-03-28T00:20:06.508Z,8.90
2019-03-28T00:22:45.994Z,8.80
2019-03-28T00:25:17.354Z,8.80
2019-03-28T00:27:49.388Z,8.80
2019-03-28T00:30:21.402Z,8.80
2019-03-28T00:32:52.838Z,8.80
2019-03-28T00:35:24.469Z,8.80
2019-03-28T00:37:55.896Z,8.80
2019-03-28T00:40:27.339Z,8.80
2019-03-28T00:42:58.700Z,8.80
2019-03-28T00:45:30.191Z,8.80
2019-03-28T00:48:02.475Z,8.90
2019-03-28T00:50:34.409Z,8.80
2019-03-28T00:53:07.844Z,8.80
2019-03-28T00:55:39.258Z,8.80
2019-03-28T00:58:10.547Z,8.80
2019-03-28T01:00:42.377Z,8.80
2019-03-28T01:03:13.798Z,8.80
2019-03-28T01:05:45.183Z,8.80
2019-03-28T01:08:17.802Z,8.80
2019-03-28T01:10:49.388Z,8.80
2019-03-28T01:13:20.792Z,8.80
2019-03-28T01:15:52.015Z,8.80
2019-03-28T01:18:23.344Z,8.80
2019-03-28T01:20:54.690Z,8.80
2019-03-28T01:23:26.101Z,8.80
2019-03-28T01:25:57.428Z,8.80
2019-03-28T01:28:28.986Z,8.80
2019-03-28T01:31:00.432Z,8.80
2019-03-28T01:33:32.094Z,8.80
2019-03-28T01:36:03.382Z,8.80
2019-03-28T01:38:34.652Z,8.80
2019-03-28T01:41:05.855Z,8.80
2019-03-28T01:43:37.069Z,8.80
2019-03-28T01:46:08.371Z,8.80
2019-03-28T01:48:39.616Z,8.80
2019-03-28T01:51:11.031Z,8.80
2019-03-28T02:08:54.344Z,8.80
2019-03-28T02:11:25.679Z,8.70
2019-03-28T02:13:56.979Z,8.70
2019-03-28T02:16:28.395Z,8.70
2019-03-28T02:18:59.702Z,8.70
2019-03-28T02:21:31.110Z,8.70
2019-03-28T02:24:02.615Z,8.70
2019-03-28T02:26:36.076Z,8.70
2019-03-28T02:29:07.483Z,8.70
2019-03-28T02:31:41.246Z,8.70
2019-03-28T02:34:12.490Z,8.70
2019-03-28T02:36:43.976Z,8.70
2019-03-28T02:39:15.486Z,8.70
2019-03-28T02:41:46.862Z,8.70
2019-03-28T02:44:19.306Z,8.70
2019-03-28T02:46:50.881Z,8.70
2019-03-28T02:49:22.242Z,8.60
2019-03-28T02:51:53.633Z,8.70
2019-03-28T02:54:26.623Z,8.60
2019-03-28T02:56:57.967Z,8.60
2019-03-28T02:59:29.233Z,8.60
2019-03-28T03:02:00.683Z,8.60
2019-03-28T03:04:31.984Z,8.60
2019-03-28T03:07:04.343Z,8.60
2019-03-28T03:09:35.840Z,8.60
2019-03-28T03:12:07.163Z,8.60
2019-03-28T03:14:38.525Z,8.60
2019-03-28T03:17:11.680Z,8.60
2019-03-28T03:19:43.084Z,8.60
2019-03-28T03:22:14.552Z,8.50
2019-03-28T03:24:45.933Z,8.40
2019-03-28T03:27:17.460Z,8.30
2019-03-28T03:29:48.835Z,8.20
2019-03-28T03:32:20.255Z,8.10
2019-03-28T03:34:51.506Z,8.00
2019-03-28T03:37:22.932Z,8.00
2019-03-28T03:39:54.326Z,7.90
2019-03-28T03:42:25.677Z,7.90
2019-03-28T03:44:57.024Z,7.90
2019-03-28T03:47:28.408Z,7.80
2019-03-28T03:49:59.759Z,7.80
2019-03-28T03:52:31.124Z,7.80
2019-03-28T03:55:02.521Z,7.70
2019-03-28T03:57:35.205Z,7.70
2019-03-28T04:00:07.269Z,7.70
2019-03-28T04:02:38.650Z,7.60
2019-03-28T04:05:10.115Z,7.60
2019-03-28T04:07:41.468Z,7.60
2019-03-28T04:10:12.687Z,7.60
2019-03-28T04:12:44.131Z,7.50
2019-03-28T04:15:15.456Z,7.50
2019-03-28T04:17:47.723Z,7.50
2019-03-28T04:20:19.380Z,7.40
2019-03-28T04:22:50.699Z,7.40
2019-03-28T04:25:21.998Z,7.40
2019-03-28T04:27:53.299Z,7.40
2019-03-28T04:30:24.590Z,7.40
2019-03-28T04:32:55.886Z,7.40
2019-03-28T04:35:27.183Z,7.40
2019-03-28T04:37:58.739Z,7.40
2019-03-28T04:40:31.312Z,7.50
2019-03-28T04:43:02.685Z,7.50
2019-03-28T04:45:36.887Z,7.50
2019-03-28T04:48:08.201Z,7.50
2019-03-28T04:50:39.528Z,7.50
2019-03-28T04:53:11.527Z,7.60
2019-03-28T04:55:42.946Z,7.60
2019-03-28T04:58:14.315Z,7.70
2019-03-28T05:00:45.695Z,7.70
2019-03-28T05:03:17.752Z,7.80
2019-03-28T05:05:49.052Z,7.80
2019-03-28T05:08:20.402Z,7.80
2019-03-28T05:10:51.728Z,7.90
2019-03-28T05:13:23.043Z,7.90
2019-03-28T05:15:54.354Z,7.90
2019-03-28T05:18:25.696Z,7.90
2019-03-28T05:20:57.004Z,7.90
2019-03-28T05:23:28.444Z,8.00
2019-03-28T05:25:59.715Z,8.00
2019-03-28T05:28:30.983Z,8.00
2019-03-28T05:31:02.399Z,8.00
2019-03-28T05:33:36.040Z,8.10
2019-03-28T05:36:07.419Z,8.10
2019-03-28T05:38:38.768Z,8.10
2019-03-28T05:41:10.011Z,8.10
2019-03-28T05:43:41.397Z,8.10
2019-03-28T05:46:13.301Z,8.10
2019-03-28T05:48:44.645Z,8.10
2019-03-28T05:51:15.945Z,8.20
2019-03-28T05:53:47.359Z,8.20
2019-03-28T05:56:18.650Z,8.20
2019-03-28T05:58:49.880Z,8.20
2019-03-28T06:01:21.252Z,8.20
2019-03-28T06:03:52.595Z,8.30
2019-03-28T06:06:23.862Z,8.30
2019-03-28T06:08:55.337Z,8.30
2019-03-28T06:11:26.815Z,8.40
2019-03-28T06:13:59.671Z,8.40
2019-03-28T06:16:31.111Z,8.40
2019-03-28T06:19:02.533Z,8.40
2019-03-28T06:21:33.988Z,8.50
2019-03-28T06:24:09.093Z,8.50
2019-03-28T06:26:49.706Z,8.50
2019-03-28T06:29:24.117Z,8.50
2019-03-28T06:31:55.785Z,8.50
2019-03-28T06:34:30.297Z,8.60
2019-03-28T06:37:13.734Z,8.60
2019-03-28T06:40:06.370Z,8.60
2019-03-28T06:42:42.948Z,8.70
2019-03-28T06:45:15.717Z,8.70
2019-03-28T06:47:47.354Z,8.70
2019-03-28T06:50:18.894Z,8.70
2019-03-28T06:52:50.348Z,8.80
2019-03-28T06:55:23.970Z,8.80
2019-03-28T06:57:55.135Z,8.80
2019-03-28T07:00:26.637Z,8.90
2019-03-28T07:03:00.949Z,9.00
2019-03-28T07:05:32.322Z,9.00
2019-03-28T07:08:05.174Z,9.10
2019-03-28T07:10:36.682Z,9.10
2019-03-28T07:13:08.231Z,9.20
2019-03-28T07:15:40.747Z,9.30
2019-03-28T07:18:12.056Z,9.40
2019-03-28T07:20:59.900Z,9.40
2019-03-28T07:23:31.896Z,9.50
2019-03-28T07:26:04.903Z,9.50
2019-03-28T07:28:37.866Z,9.60
2019-03-28T07:31:09.287Z,9.60
2019-03-28T07:33:40.631Z,9.60
2019-03-28T07:36:13.687Z,9.60
2019-03-28T07:38:45.004Z,9.70
2019-03-28T07:41:16.737Z,9.70
2019-03-28T07:43:48.298Z,9.70
2019-03-28T07:46:19.763Z,9.80
2019-03-28T07:48:51.164Z,9.90
2019-03-28T07:51:24.147Z,9.90
2019-03-28T07:53:56.586Z,10.00
2019-03-28T07:56:27.846Z,10.10
2019-03-28T07:59:03.867Z,10.20
2019-03-28T08:01:35.310Z,10.30
2019-03-28T08:04:14.309Z,10.40
2019-03-28T08:06:50.136Z,10.50
2019-03-28T08:09:19.308Z,10.50
2019-03-28T08:11:50.708Z,10.50
2019-03-28T08:14:22.143Z,10.60
2019-03-28T08:16:53.431Z,10.70
2019-03-28T08:19:24.879Z,10.70
2019-03-28T08:21:57.956Z,10.80
2019-03-28T08:24:31.536Z,10.80
2019-03-28T08:27:02.969Z,10.80
2019-03-28T08:29:34.335Z,10.90
2019-03-28T08:32:09.215Z,11.00
2019-03-28T08:34:41.801Z,11.10
2019-03-28T08:37:14.964Z,11.10
2019-03-28T08:39:49.656Z,11.10
2019-03-28T08:42:21.000Z,11.10
2019-03-28T08:44:52.905Z,11.00
2019-03-28T08:47:24.363Z,11.00
2019-03-28T08:49:58.644Z,11.10
2019-03-28T08:52:28.836Z,11.10
2019-03-28T08:55:00.479Z,10.90
2019-03-28T08:57:34.143Z,10.80
2019-03-28T09:00:06.603Z,10.70
2019-03-28T09:02:38.182Z,10.70
2019-03-28T09:05:10.599Z,10.80
2019-03-28T09:07:42.870Z,10.90
2019-03-28T09:10:16.075Z,10.90
2019-03-28T09:12:50.042Z,11.00
2019-03-28T09:15:21.483Z,11.00
2019-03-28T09:17:52.808Z,11.10
2019-03-28T09:20:24.207Z,11.10
2019-03-28T09:22:55.579Z,11.10
2019-03-28T09:25:26.954Z,11.10
2019-03-28T09:27:58.488Z,11.00
2019-03-28T09:30:47.616Z,11.00
2019-03-28T09:33:08.690Z,11.10
2019-03-28T09:35:42.383Z,11.00
2019-03-28T09:38:13.878Z,10.90
2019-03-28T09:40:45.178Z,10.70
2019-03-28T09:43:16.541Z,10.70
2019-03-28T09:45:47.986Z,10.60
2019-03-28T09:48:19.407Z,10.50
2019-03-28T09:50:50.769Z,10.40
2019-03-28T09:53:22.225Z,10.40
2019-03-28T09:55:55.162Z,10.40
2019-03-28T09:58:26.511Z,10.40
2019-03-28T10:01:03.056Z,10.40
2019-03-28T10:03:32.389Z,10.40
2019-03-28T10:06:03.779Z,10.50
2019-03-28T10:08:35.023Z,10.60
2019-03-28T10:11:06.412Z,10.80
2019-03-28T10:13:37.791Z,11.10
2019-03-28T10:16:09.589Z,11.10
2019-03-28T10:18:41.129Z,11.30
2019-03-28T10:21:12.466Z,11.40
2019-03-28T10:23:44.467Z,11.40
2019-03-28T10:26:16.051Z,11.50
2019-03-28T10:28:47.414Z,11.40
2019-03-28T10:31:18.816Z,11.20
2019-03-28T10:33:50.555Z,10.90
2019-03-28T10:36:22.741Z,10.80
2019-03-28T10:38:55.854Z,10.70
2019-03-28T10:41:27.344Z,10.70
2019-03-28T10:43:58.774Z,10.80
2019-03-28T10:46:33.423Z,10.90
2019-03-28T10:49:04.940Z,11.00
2019-03-28T10:51:36.573Z,11.00
2019-03-28T10:54:19.403Z,11.20
2019-03-28T10:56:51.243Z,11.70
2019-03-28T10:59:23.262Z,12.30
2019-03-28T11:01:50.706Z,12.50
2019-03-28T11:04:20.258Z,12.40
2019-03-28T11:06:51.706Z,12.30
2019-03-28T11:09:23.050Z,12.00
2019-03-28T11:11:54.368Z,12.00
2019-03-28T11:14:25.728Z,12.00
2019-03-28T11:16:57.142Z,11.90
2019-03-28T11:19:31.164Z,11.60
2019-03-28T11:22:03.611Z,11.50
2019-03-28T11:24:34.975Z,11.20
2019-03-28T11:27:06.397Z,11.00
2019-03-28T11:29:39.907Z,11.00
2019-03-28T11:32:11.285Z,11.10
2019-03-28T11:34:42.819Z,11.10
2019-03-28T11:37:25.311Z,11.20
2019-03-28T11:39:47.326Z,11.20
2019-03-28T11:42:18.733Z,11.10
2019-03-28T11:44:50.098Z,11.20
2019-03-28T11:47:22.386Z,11.20
2019-03-28T11:49:55.929Z,11.20
2019-03-28T11:52:27.450Z,11.20
2019-03-28T11:54:58.790Z,11.10
2019-03-28T11:57:30.240Z,11.10
2019-03-28T12:00:01.651Z,11.10
2019-03-28T12:02:35.799Z,11.20
2019-03-28T12:05:07.925Z,11.20
2019-03-28T12:07:39.818Z,11.20
2019-03-28T12:10:11.951Z,11.20
2019-03-28T12:12:43.408Z,11.20
2019-03-28T12:15:15.088Z,11.10
2019-03-28T12:17:46.481Z,11.10
2019-03-28T12:20:18.008Z,11.10
2019-03-28T12:22:49.429Z,11.10
2019-03-28T12:25:22.401Z,11.00
2019-03-28T12:27:53.807Z,10.90
2019-03-28T12:30:25.071Z,10.90
2019-03-28T12:32:56.498Z,10.80
2019-03-28T12:35:27.880Z,10.80
2019-03-28T12:37:59.295Z,10.80
2019-03-28T12:40:31.718Z,10.70
2019-03-28T12:43:02.999Z,10.60
2019-03-28T12:45:34.299Z,10.60
2019-03-28T12:48:05.715Z,10.70
2019-03-28T12:50:37.170Z,10.70
2019-03-28T12:53:08.591Z,10.70
2019-03-28T12:55:40.071Z,10.70
2019-03-28T12:58:12.500Z,10.70
2019-03-28T13:00:45.429Z,10.70
2019-03-28T13:03:16.882Z,10.70
2019-03-28T13:05:48.162Z,10.70
2019-03-28T13:08:20.447Z,10.70
2019-03-28T13:10:51.829Z,10.70
2019-03-28T13:13:24.391Z,10.70
2019-03-28T13:15:55.815Z,10.70
2019-03-28T13:18:27.304Z,10.80
2019-03-28T13:21:12.399Z,10.80
2019-03-28T13:23:31.619Z,10.80
2019-03-28T13:26:03.521Z,10.80
2019-03-28T13:28:34.771Z,10.80
2019-03-28T13:31:06.076Z,10.90
2019-03-28T13:33:37.485Z,10.90
2019-03-28T13:36:11.749Z,10.90
2019-03-28T13:38:42.986Z,10.90
2019-03-28T13:41:14.311Z,10.90
2019-03-28T13:43:46.671Z,11.00
2019-03-28T13:46:18.699Z,11.10
2019-03-28T13:48:50.064Z,11.10
2019-03-28T13:51:21.330Z,11.20
2019-03-28T13:53:53.804Z,11.20
2019-03-28T13:56:26.862Z,11.30
2019-03-28T13:58:58.231Z,11.30
2019-03-28T14:01:29.613Z,11.30
2019-03-28T14:04:00.982Z,11.30
2019-03-28T14:06:33.316Z,11.30
2019-03-28T14:09:06.419Z,11.40
2019-03-28T14:11:41.003Z,11.40
2019-03-28T14:14:12.310Z,11.40
2019-03-28T14:16:43.659Z,11.50
2019-03-28T14:19:14.972Z,11.50
2019-03-28T14:21:46.342Z,11.50
2019-03-28T14:24:19.243Z,11.60
2019-03-28T14:26:50.675Z,11.60
2019-03-28T14:29:22.101Z,11.60
2019-03-28T14:31:53.414Z,11.60
2019-03-28T14:34:24.658Z,11.60
2019-03-28T14:36:57.410Z,11.60
2019-03-28T14:39:28.716Z,11.60
2019-03-28T14:42:01.562Z,11.70
2019-03-28T14:44:34.084Z,11.80
2019-03-28T14:47:05.413Z,11.70
2019-03-28T14:49:36.817Z,11.80
2019-03-28T14:52:08.127Z,11.80
2019-03-28T14:54:40.842Z,11.80
2019-03-28T14:57:13.442Z,11.80
2019-03-28T14:59:45.522Z,11.80
2019-03-28T15:02:17.898Z,11.90
2019-03-28T15:04:52.276Z,12.00
2019-03-28T15:07:23.974Z,12.10
2019-03-28T15:09:55.330Z,12.10
2019-03-28T15:12:52.401Z,12.10
2019-03-28T15:15:31.606Z,12.10
2019-03-28T15:18:03.854Z,12.10
2019-03-28T15:20:38.831Z,12.20
2019-03-28T15:23:18.515Z,12.20
2019-03-28T15:25:51.352Z,12.30
2019-03-28T15:28:31.845Z,12.30
2019-03-28T15:34:18.707Z,12.40
2019-03-28T15:36:57.754Z,12.40
2019-03-28T15:39:39.725Z,12.40
2019-03-28T15:42:44.530Z,12.40
2019-03-28T15:45:21.127Z,12.40
2019-03-28T15:48:01.373Z,12.30
2019-03-28T15:50:43.272Z,12.20
2019-03-28T15:53:18.820Z,12.30
2019-03-28T15:55:56.394Z,12.40
2019-03-28T15:58:31.637Z,12.50
2019-03-28T16:01:05.399Z,12.50
2019-03-28T16:04:16.927Z,12.60
2019-03-28T16:06:55.971Z,12.60
2019-03-28T16:09:24.127Z,12.60
2019-03-28T16:15:31.138Z,12.40
2019-03-28T16:18:44.464Z,12.40
2019-03-28T16:21:33.395Z,12.40
2019-03-28T16:24:28.824Z,12.40
2019-03-28T16:31:25.779Z,12.30
2019-03-28T16:34:12.878Z,12.10
2019-03-28T16:36:47.716Z,12.10
2019-03-28T16:39:24.998Z,12.10
2019-03-28T16:41:58.421Z,12.10
2019-03-28T16:44:46.098Z,12.00
2019-03-28T16:47:17.565Z,11.90
2019-03-28T16:49:48.838Z,11.90
2019-03-28T16:52:20.229Z,11.80
2019-03-28T16:54:51.907Z,11.80
2019-03-28T16:57:24.912Z,11.80
2019-03-28T16:59:56.310Z,11.70
2019-03-28T17:02:30.034Z,11.70
2019-03-28T17:05:01.396Z,11.70
2019-03-28T17:07:33.455Z,11.60
2019-03-28T17:10:05.932Z,11.60
2019-03-28T17:12:37.258Z,11.50
2019-03-28T17:15:08.656Z,11.50
2019-03-28T17:17:43.395Z,11.40
2019-03-28T17:20:16.467Z,11.40
2019-03-28T17:22:51.404Z,11.30
2019-03-28T17:25:31.460Z,11.20
2019-03-28T17:28:08.832Z,11.20
2019-03-28T17:30:45.968Z,11.10
2019-03-28T17:33:18.040Z,11.00
2019-03-28T17:35:50.080Z,10.90
2019-03-28T17:38:22.470Z,10.80
2019-03-28T17:40:56.856Z,10.80
2019-03-28T17:43:32.159Z,10.80
2019-03-28T17:46:06.556Z,10.80
2019-03-28T17:48:40.767Z,10.80
2019-03-28T17:51:12.155Z,10.80
2019-03-28T17:53:43.603Z,10.80
2019-03-28T17:56:20.274Z,10.80
2019-03-28T17:58:52.045Z,10.80
2019-03-28T18:01:24.375Z,10.80
2019-03-28T18:04:22.291Z,10.80
2019-03-28T18:06:46.990Z,10.80
2019-03-28T18:09:25.897Z,10.80
2019-03-28T18:12:03.244Z,10.80
2019-03-28T18:14:38.854Z,10.80
2019-03-28T18:17:11.498Z,10.80
2019-03-28T18:19:54.822Z,10.80
2019-03-28T18:22:29.733Z,10.80
2019-03-28T18:25:22.121Z,10.70
2019-03-28T18:27:58.995Z,10.70
2019-03-28T18:30:37.190Z,10.70
2019-03-28T18:33:08.158Z,10.60
2019-03-28T18:35:57.288Z,10.60
2019-03-28T18:38:31.034Z,10.60
2019-03-28T18:41:05.018Z,10.60
2019-03-28T18:43:39.115Z,10.60
2019-03-28T18:46:20.582Z,10.60
2019-03-28T18:49:06.746Z,10.60
2019-03-28T18:51:38.307Z,10.60
2019-03-28T18:57:13.804Z,10.50
2019-03-28T18:59:53.035Z,10.50
2019-03-28T19:05:56.336Z,10.50
2019-03-28T19:08:32.537Z,10.40
2019-03-28T19:11:05.824Z,10.40
2019-03-28T19:13:40.400Z,10.40
2019-03-28T19:16:16.804Z,10.40
2019-03-28T19:18:50.439Z,10.40
2019-03-28T19:21:29.207Z,10.40
2019-03-28T19:24:11.445Z,10.40
2019-03-28T19:27:06.908Z,10.40
2019-03-28T19:29:50.897Z,10.40
2019-03-28T19:32:22.720Z,10.40
2019-03-28T19:35:17.165Z,10.40
2019-03-28T19:41:05.016Z,10.40
2019-03-28T19:55:02.113Z,10.30
2019-03-28T20:05:15.237Z,10.30
2019-03-28T20:07:45.809Z,10.20
2019-03-28T20:11:07.753Z,10.20
2019-03-28T20:13:50.027Z,10.20
2019-03-28T20:37:19.747Z,10.00
2019-03-28T20:40:36.329Z,9.90
2019-03-28T20:43:40.432Z,9.90
2019-03-28T20:49:27.481Z,9.70
2019-03-28T20:51:58.902Z,9.70
2019-03-28T20:54:34.871Z,9.60
2019-03-28T20:57:06.315Z,9.50
2019-03-28T20:59:37.909Z,9.40
2019-03-28T21:02:11.462Z,9.30
2019-03-28T21:04:44.030Z,9.30
2019-03-28T21:07:17.922Z,9.20
2019-03-28T21:09:49.390Z,9.10
2019-03-28T21:12:20.664Z,9.00
2019-03-28T21:14:52.021Z,8.90
2019-03-28T21:17:23.323Z,8.80
2019-03-28T21:19:54.659Z,8.70
2019-03-28T21:22:25.929Z,8.60
2019-03-28T21:24:57.323Z,8.50
2019-03-28T21:27:30.278Z,8.40
2019-03-28T21:30:01.635Z,8.30
2019-03-28T21:32:33.078Z,8.30
2019-03-28T21:35:04.494Z,8.20
2019-03-28T21:37:35.823Z,8.10
2019-03-28T21:40:08.271Z,8.00
2019-03-28T21:42:41.443Z,7.90
2019-03-28T21:45:12.901Z,7.90
2019-03-28T21:47:44.320Z,7.80
2019-03-28T21:50:15.959Z,7.70
2019-03-28T21:52:47.327Z,7.70
2019-03-28T21:55:18.905Z,7.60
2019-03-28T21:58:00.581Z,7.60
2019-03-28T22:00:42.177Z,7.50
2019-03-28T22:03:13.695Z,7.40
2019-03-28T22:05:45.009Z,7.30
2019-03-28T22:08:16.386Z,7.30
2019-03-28T22:10:48.732Z,7.20
2019-03-28T22:13:36.275Z,7.20
2019-03-28T22:16:08.954Z,7.10
2019-03-28T22:18:40.598Z,7.10
2019-03-28T22:21:14.473Z,7.10
2019-03-28T22:23:46.826Z,7.00
2019-03-28T22:26:27.202Z,6.90
2019-03-28T22:28:59.443Z,6.90
2019-03-28T22:31:31.143Z,6.90
2019-03-28T22:34:02.770Z,6.80
2019-03-28T22:36:34.188Z,6.70
2019-03-28T22:39:28.851Z,6.70
2019-03-28T22:42:01.850Z,6.70
2019-03-28T22:44:34.796Z,6.60
2019-03-28T22:47:06.358Z,6.60
2019-03-28T22:49:38.892Z,6.50
2019-03-28T22:52:10.288Z,6.50
2019-03-28T22:54:50.323Z,6.50
2019-03-28T22:57:37.238Z,6.40
2019-03-28T23:00:11.646Z,6.40
2019-03-28T23:02:44.693Z,6.40
2019-03-28T23:05:16.322Z,6.30
2019-03-28T23:07:47.768Z,6.30
2019-03-28T23:10:26.925Z,6.20
2019-03-28T23:12:58.415Z,6.20
2019-03-28T23:15:30.018Z,6.10
2019-03-28T23:18:01.366Z,6.10
2019-03-28T23:20:33.818Z,6.00
2019-03-28T23:23:11.577Z,6.00
2019-03-28T23:25:47.761Z,6.00
2019-03-28T23:28:19.281Z,5.90
2019-03-28T23:30:50.903Z,5.90
2019-03-28T23:33:23.896Z,5.90
2019-03-28T23:35:55.383Z,5.80
2019-03-28T23:38:53.622Z,5.80
2019-03-28T23:41:26.963Z,5.80
2019-03-28T23:44:15.921Z,5.70
2019-03-28T23:46:48.330Z,5.70
2019-03-28T23:49:20.018Z,5.60
2019-03-28T23:52:28.530Z,5.60
2019-03-28T23:55:13.412Z,5.60
2019-03-28T23:57:47.961Z,5.50
